sensor_id;sensor_type;location;lat;lon;timestamp;temperature;humidity
61386;DHT22;47256;18.904;-99.054;2022-07-29T00:00:47;28.00;79.50
61386;DHT22;47256;18.904;-99.054;2022-07-29T00:03:14;28.10;78.80
61386;DHT22;47256;18.904;-99.054;2022-07-29T00:05:42;28.20;78.50
61386;DHT22;47256;18.904;-99.054;2022-07-29T00:08:09;28.20;79.20
61386;DHT22;47256;18.904;-99.054;2022-07-29T00:10:36;28.20;80.30
61386;DHT22;47256;18.904;-99.054;2022-07-29T00:13:03;28.10;80.90
61386;DHT22;47256;18.904;-99.054;2022-07-29T00:15:30;28.00;80.90
61386;DHT22;47256;18.904;-99.054;2022-07-29T00:17:57;27.90;82.70
61386;DHT22;47256;18.904;-99.054;2022-07-29T00:20:25;27.80;81.60
61386;DHT22;47256;18.904;-99.054;2022-07-29T00:22:52;27.70;83.70
61386;DHT22;47256;18.904;-99.054;2022-07-29T00:25:19;27.80;83.60
61386;DHT22;47256;18.904;-99.054;2022-07-29T00:27:47;27.70;83.30
61386;DHT22;47256;18.904;-99.054;2022-07-29T00:30:14;27.70;82.40
61386;DHT22;47256;18.904;-99.054;2022-07-29T00:32:41;27.70;82.30
61386;DHT22;47256;18.904;-99.054;2022-07-29T00:35:09;27.80;83.30
61386;DHT22;47256;18.904;-99.054;2022-07-29T00:37:54;27.80;82.50
61386;DHT22;47256;18.904;-99.054;2022-07-29T00:40:22;27.80;82.70
61386;DHT22;47256;18.904;-99.054;2022-07-29T00:42:50;27.80;84.00
61386;DHT22;47256;18.904;-99.054;2022-07-29T00:45:19;27.80;83.00
61386;DHT22;47256;18.904;-99.054;2022-07-29T00:47:47;27.80;83.10
61386;DHT22;47256;18.904;-99.054;2022-07-29T00:50:15;27.80;82.50
61386;DHT22;47256;18.904;-99.054;2022-07-29T00:52:43;27.80;83.50
61386;DHT22;47256;18.904;-99.054;2022-07-29T00:55:13;27.70;82.90
61386;DHT22;47256;18.904;-99.054;2022-07-29T00:57:42;27.70;84.10
61386;DHT22;47256;18.904;-99.054;2022-07-29T01:00:15;27.70;84.40
61386;DHT22;47256;18.904;-99.054;2022-07-29T01:02:48;27.70;86.80
61386;DHT22;47256;18.904;-99.054;2022-07-29T01:05:21;27.60;84.20
61386;DHT22;47256;18.904;-99.054;2022-07-29T01:07:51;27.60;87.60
61386;DHT22;47256;18.904;-99.054;2022-07-29T01:10:19;27.50;87.50
61386;DHT22;47256;18.904;-99.054;2022-07-29T01:12:50;27.50;88.80
61386;DHT22;47256;18.904;-99.054;2022-07-29T01:15:17;27.50;89.10
61386;DHT22;47256;18.904;-99.054;2022-07-29T01:21:02;27.30;88.70
61386;DHT22;47256;18.904;-99.054;2022-07-29T01:29:34;27.20;89.60
61386;DHT22;47256;18.904;-99.054;2022-07-29T01:32:10;27.20;89.60
61386;DHT22;47256;18.904;-99.054;2022-07-29T01:34:50;27.00;91.00
61386;DHT22;47256;18.904;-99.054;2022-07-29T01:37:48;26.90;90.10
61386;DHT22;47256;18.904;-99.054;2022-07-29T01:40:20;26.80;91.60
61386;DHT22;47256;18.904;-99.054;2022-07-29T01:42:52;26.80;91.50
61386;DHT22;47256;18.904;-99.054;2022-07-29T01:45:46;26.80;91.00
61386;DHT22;47256;18.904;-99.054;2022-07-29T01:48:22;26.80;91.20
61386;DHT22;47256;18.904;-99.054;2022-07-29T01:51:14;26.80;91.50
61386;DHT22;47256;18.904;-99.054;2022-07-29T01:54:01;26.80;91.80
61386;DHT22;47256;18.904;-99.054;2022-07-29T01:56:31;26.80;91.90
61386;DHT22;47256;18.904;-99.054;2022-07-29T01:59:01;26.80;91.50
61386;DHT22;47256;18.904;-99.054;2022-07-29T02:01:32;26.80;92.10
61386;DHT22;47256;18.904;-99.054;2022-07-29T02:04:02;26.80;92.20
61386;DHT22;47256;18.904;-99.054;2022-07-29T02:06:33;26.70;92.30
61386;DHT22;47256;18.904;-99.054;2022-07-29T02:09:02;26.70;92.50
61386;DHT22;47256;18.904;-99.054;2022-07-29T02:11:33;26.70;92.20
61386;DHT22;47256;18.904;-99.054;2022-07-29T02:14:02;26.60;92.30
61386;DHT22;47256;18.904;-99.054;2022-07-29T02:16:32;26.60;92.20
61386;DHT22;47256;18.904;-99.054;2022-07-29T02:19:02;26.50;91.80
61386;DHT22;47256;18.904;-99.054;2022-07-29T02:21:32;26.40;91.20
61386;DHT22;47256;18.904;-99.054;2022-07-29T02:24:02;26.40;90.90
61386;DHT22;47256;18.904;-99.054;2022-07-29T02:26:32;26.40;90.00
61386;DHT22;47256;18.904;-99.054;2022-07-29T02:29:02;26.40;88.10
61386;DHT22;47256;18.904;-99.054;2022-07-29T02:31:35;26.20;85.70
61386;DHT22;47256;18.904;-99.054;2022-07-29T02:34:08;26.10;86.30
61386;DHT22;47256;18.904;-99.054;2022-07-29T02:36:38;26.10;86.50
61386;DHT22;47256;18.904;-99.054;2022-07-29T02:39:07;26.10;87.00
61386;DHT22;47256;18.904;-99.054;2022-07-29T02:41:42;26.10;86.40
61386;DHT22;47256;18.904;-99.054;2022-07-29T02:44:17;26.10;84.80
61386;DHT22;47256;18.904;-99.054;2022-07-29T02:49:38;26.20;87.30
61386;DHT22;47256;18.904;-99.054;2022-07-29T02:52:20;26.30;88.00
61386;DHT22;47256;18.904;-99.054;2022-07-29T02:54:56;26.10;89.00
61386;DHT22;47256;18.904;-99.054;2022-07-29T03:00:16;25.90;90.80
61386;DHT22;47256;18.904;-99.054;2022-07-29T03:03:00;25.70;90.10
61386;DHT22;47256;18.904;-99.054;2022-07-29T03:05:35;25.60;89.70
61386;DHT22;47256;18.904;-99.054;2022-07-29T03:08:09;25.50;90.20
61386;DHT22;47256;18.904;-99.054;2022-07-29T03:10:44;25.40;90.20
61386;DHT22;47256;18.904;-99.054;2022-07-29T03:13:18;25.30;90.60
61386;DHT22;47256;18.904;-99.054;2022-07-29T03:15:50;25.30;90.40
61386;DHT22;47256;18.904;-99.054;2022-07-29T03:18:19;25.40;90.50
61386;DHT22;47256;18.904;-99.054;2022-07-29T03:20:48;25.50;90.50
61386;DHT22;47256;18.904;-99.054;2022-07-29T03:23:20;25.50;90.90
61386;DHT22;47256;18.904;-99.054;2022-07-29T03:25:51;25.40;90.90
61386;DHT22;47256;18.904;-99.054;2022-07-29T03:28:18;25.30;91.50
61386;DHT22;47256;18.904;-99.054;2022-07-29T03:30:47;25.20;91.10
61386;DHT22;47256;18.904;-99.054;2022-07-29T03:33:16;25.20;90.90
61386;DHT22;47256;18.904;-99.054;2022-07-29T03:35:43;25.20;91.40
61386;DHT22;47256;18.904;-99.054;2022-07-29T03:38:11;25.20;91.30
61386;DHT22;47256;18.904;-99.054;2022-07-29T03:40:54;25.30;90.60
61386;DHT22;47256;18.904;-99.054;2022-07-29T03:43:25;25.50;90.70
61386;DHT22;47256;18.904;-99.054;2022-07-29T03:45:58;25.50;91.30
61386;DHT22;47256;18.904;-99.054;2022-07-29T03:48:28;25.60;91.20
61386;DHT22;47256;18.904;-99.054;2022-07-29T03:50:57;25.70;91.20
61386;DHT22;47256;18.904;-99.054;2022-07-29T03:53:25;25.80;91.10
61386;DHT22;47256;18.904;-99.054;2022-07-29T03:55:58;25.70;91.30
61386;DHT22;47256;18.904;-99.054;2022-07-29T03:58:27;25.80;91.20
61386;DHT22;47256;18.904;-99.054;2022-07-29T04:00:55;25.70;91.80
61386;DHT22;47256;18.904;-99.054;2022-07-29T04:03:23;25.70;92.10
61386;DHT22;47256;18.904;-99.054;2022-07-29T04:06:02;25.60;92.40
61386;DHT22;47256;18.904;-99.054;2022-07-29T04:08:36;25.50;94.00
61386;DHT22;47256;18.904;-99.054;2022-07-29T04:11:04;25.40;93.10
61386;DHT22;47256;18.904;-99.054;2022-07-29T04:13:33;25.40;93.40
61386;DHT22;47256;18.904;-99.054;2022-07-29T04:16:02;25.30;93.30
61386;DHT22;47256;18.904;-99.054;2022-07-29T04:18:29;25.30;93.50
61386;DHT22;47256;18.904;-99.054;2022-07-29T04:20:57;25.30;93.70
61386;DHT22;47256;18.904;-99.054;2022-07-29T04:23:29;25.30;93.50
61386;DHT22;47256;18.904;-99.054;2022-07-29T04:26:00;25.30;93.90
61386;DHT22;47256;18.904;-99.054;2022-07-29T04:28:28;25.20;94.60
61386;DHT22;47256;18.904;-99.054;2022-07-29T04:30:56;25.10;94.80
61386;DHT22;47256;18.904;-99.054;2022-07-29T04:33:24;25.20;94.80
61386;DHT22;47256;18.904;-99.054;2022-07-29T04:35:51;25.20;94.50
61386;DHT22;47256;18.904;-99.054;2022-07-29T04:38:19;25.20;94.40
61386;DHT22;47256;18.904;-99.054;2022-07-29T04:40:46;25.20;94.80
61386;DHT22;47256;18.904;-99.054;2022-07-29T04:43:16;25.10;94.50
61386;DHT22;47256;18.904;-99.054;2022-07-29T04:45:44;25.20;94.60
61386;DHT22;47256;18.904;-99.054;2022-07-29T04:48:11;25.20;94.50
61386;DHT22;47256;18.904;-99.054;2022-07-29T04:50:39;25.20;94.40
61386;DHT22;47256;18.904;-99.054;2022-07-29T04:53:07;25.20;94.20
61386;DHT22;47256;18.904;-99.054;2022-07-29T04:55:35;25.20;94.60
61386;DHT22;47256;18.904;-99.054;2022-07-29T04:58:03;25.20;95.20
61386;DHT22;47256;18.904;-99.054;2022-07-29T05:00:30;25.20;95.10
61386;DHT22;47256;18.904;-99.054;2022-07-29T05:02:59;25.20;95.40
61386;DHT22;47256;18.904;-99.054;2022-07-29T05:05:27;25.20;95.50
61386;DHT22;47256;18.904;-99.054;2022-07-29T05:07:55;25.20;96.10
61386;DHT22;47256;18.904;-99.054;2022-07-29T05:10:23;25.20;96.00
61386;DHT22;47256;18.904;-99.054;2022-07-29T05:12:50;25.10;95.80
61386;DHT22;47256;18.904;-99.054;2022-07-29T05:15:18;25.10;95.50
61386;DHT22;47256;18.904;-99.054;2022-07-29T05:17:46;25.10;95.80
61386;DHT22;47256;18.904;-99.054;2022-07-29T05:20:14;25.10;95.90
61386;DHT22;47256;18.904;-99.054;2022-07-29T05:22:41;25.00;96.60
61386;DHT22;47256;18.904;-99.054;2022-07-29T05:25:09;25.00;96.40
61386;DHT22;47256;18.904;-99.054;2022-07-29T05:27:37;25.00;96.70
61386;DHT22;47256;18.904;-99.054;2022-07-29T05:30:04;25.00;96.70
61386;DHT22;47256;18.904;-99.054;2022-07-29T05:32:32;25.00;96.20
61386;DHT22;47256;18.904;-99.054;2022-07-29T05:35:00;25.00;95.80
61386;DHT22;47256;18.904;-99.054;2022-07-29T05:37:27;25.00;95.80
61386;DHT22;47256;18.904;-99.054;2022-07-29T05:39:55;25.00;96.00
61386;DHT22;47256;18.904;-99.054;2022-07-29T05:42:23;25.00;96.00
61386;DHT22;47256;18.904;-99.054;2022-07-29T05:44:51;25.00;96.00
61386;DHT22;47256;18.904;-99.054;2022-07-29T05:47:18;25.00;95.90
61386;DHT22;47256;18.904;-99.054;2022-07-29T05:49:46;25.00;96.30
61386;DHT22;47256;18.904;-99.054;2022-07-29T05:52:14;25.00;96.40
61386;DHT22;47256;18.904;-99.054;2022-07-29T05:54:42;24.90;96.60
61386;DHT22;47256;18.904;-99.054;2022-07-29T05:57:20;24.90;96.60
61386;DHT22;47256;18.904;-99.054;2022-07-29T05:59:49;24.90;96.70
61386;DHT22;47256;18.904;-99.054;2022-07-29T06:02:18;24.90;96.50
61386;DHT22;47256;18.904;-99.054;2022-07-29T06:04:45;25.00;96.60
61386;DHT22;47256;18.904;-99.054;2022-07-29T06:07:13;25.00;96.80
61386;DHT22;47256;18.904;-99.054;2022-07-29T06:09:41;24.90;97.00
61386;DHT22;47256;18.904;-99.054;2022-07-29T06:12:09;24.90;97.00
61386;DHT22;47256;18.904;-99.054;2022-07-29T06:14:36;24.90;96.90
61386;DHT22;47256;18.904;-99.054;2022-07-29T06:17:05;24.80;97.30
61386;DHT22;47256;18.904;-99.054;2022-07-29T06:19:34;24.80;97.00
61386;DHT22;47256;18.904;-99.054;2022-07-29T06:22:03;24.70;97.40
61386;DHT22;47256;18.904;-99.054;2022-07-29T06:24:31;24.50;98.20
61386;DHT22;47256;18.904;-99.054;2022-07-29T06:26:58;24.40;98.60
61386;DHT22;47256;18.904;-99.054;2022-07-29T06:29:26;24.30;98.60
61386;DHT22;47256;18.904;-99.054;2022-07-29T06:31:54;24.30;98.80
61386;DHT22;47256;18.904;-99.054;2022-07-29T06:34:21;24.30;98.30
61386;DHT22;47256;18.904;-99.054;2022-07-29T06:36:49;24.30;97.70
61386;DHT22;47256;18.904;-99.054;2022-07-29T06:39:16;24.30;97.30
61386;DHT22;47256;18.904;-99.054;2022-07-29T06:41:47;24.30;97.60
61386;DHT22;47256;18.904;-99.054;2022-07-29T06:44:17;24.20;97.70
61386;DHT22;47256;18.904;-99.054;2022-07-29T06:46:44;24.30;97.90
61386;DHT22;47256;18.904;-99.054;2022-07-29T06:49:16;24.30;98.60
61386;DHT22;47256;18.904;-99.054;2022-07-29T06:51:43;24.20;99.30
61386;DHT22;47256;18.904;-99.054;2022-07-29T06:54:11;24.00;99.10
61386;DHT22;47256;18.904;-99.054;2022-07-29T06:56:39;24.00;99.20
61386;DHT22;47256;18.904;-99.054;2022-07-29T06:59:10;24.00;99.10
61386;DHT22;47256;18.904;-99.054;2022-07-29T07:01:38;24.00;98.70
61386;DHT22;47256;18.904;-99.054;2022-07-29T07:04:06;23.90;98.00
61386;DHT22;47256;18.904;-99.054;2022-07-29T07:06:35;23.80;97.20
61386;DHT22;47256;18.904;-99.054;2022-07-29T07:09:03;23.70;97.40
61386;DHT22;47256;18.904;-99.054;2022-07-29T07:11:31;23.70;97.50
61386;DHT22;47256;18.904;-99.054;2022-07-29T07:13:58;23.70;97.50
61386;DHT22;47256;18.904;-99.054;2022-07-29T07:16:26;23.70;98.20
61386;DHT22;47256;18.904;-99.054;2022-07-29T07:18:54;23.70;99.10
61386;DHT22;47256;18.904;-99.054;2022-07-29T07:21:22;23.50;99.30
61386;DHT22;47256;18.904;-99.054;2022-07-29T07:23:49;23.40;99.90
61386;DHT22;47256;18.904;-99.054;2022-07-29T07:26:17;23.30;99.90
61386;DHT22;47256;18.904;-99.054;2022-07-29T07:28:44;23.20;99.90
61386;DHT22;47256;18.904;-99.054;2022-07-29T07:31:12;23.10;99.90
61386;DHT22;47256;18.904;-99.054;2022-07-29T07:33:40;23.10;99.90
61386;DHT22;47256;18.904;-99.054;2022-07-29T07:36:07;23.10;99.90
61386;DHT22;47256;18.904;-99.054;2022-07-29T07:38:35;23.10;99.90
61386;DHT22;47256;18.904;-99.054;2022-07-29T07:41:03;23.20;99.90
61386;DHT22;47256;18.904;-99.054;2022-07-29T07:43:31;23.20;99.90
61386;DHT22;47256;18.904;-99.054;2022-07-29T07:45:58;23.20;99.90
61386;DHT22;47256;18.904;-99.054;2022-07-29T07:48:26;23.30;99.90
61386;DHT22;47256;18.904;-99.054;2022-07-29T07:50:54;23.40;99.90
61386;DHT22;47256;18.904;-99.054;2022-07-29T07:53:21;23.40;99.90
61386;DHT22;47256;18.904;-99.054;2022-07-29T07:55:49;23.50;99.90
61386;DHT22;47256;18.904;-99.054;2022-07-29T07:58:16;23.40;99.90
61386;DHT22;47256;18.904;-99.054;2022-07-29T08:00:44;23.50;99.90
61386;DHT22;47256;18.904;-99.054;2022-07-29T08:03:11;23.40;99.90
61386;DHT22;47256;18.904;-99.054;2022-07-29T08:05:41;23.30;99.90
61386;DHT22;47256;18.904;-99.054;2022-07-29T08:08:08;23.30;99.90
61386;DHT22;47256;18.904;-99.054;2022-07-29T08:10:36;23.20;99.90
61386;DHT22;47256;18.904;-99.054;2022-07-29T08:13:24;23.30;99.90
61386;DHT22;47256;18.904;-99.054;2022-07-29T08:15:55;23.30;99.90
61386;DHT22;47256;18.904;-99.054;2022-07-29T08:18:29;23.20;99.90
61386;DHT22;47256;18.904;-99.054;2022-07-29T08:20:57;23.10;99.90
61386;DHT22;47256;18.904;-99.054;2022-07-29T08:23:25;23.00;99.90
61386;DHT22;47256;18.904;-99.054;2022-07-29T08:25:53;23.10;99.90
61386;DHT22;47256;18.904;-99.054;2022-07-29T08:28:21;23.20;99.90
61386;DHT22;47256;18.904;-99.054;2022-07-29T08:30:49;23.20;99.90
61386;DHT22;47256;18.904;-99.054;2022-07-29T08:33:16;23.20;99.90
61386;DHT22;47256;18.904;-99.054;2022-07-29T08:35:44;23.20;99.90
61386;DHT22;47256;18.904;-99.054;2022-07-29T08:38:12;23.20;99.90
61386;DHT22;47256;18.904;-99.054;2022-07-29T08:40:39;23.30;99.90
61386;DHT22;47256;18.904;-99.054;2022-07-29T08:43:07;23.30;99.90
61386;DHT22;47256;18.904;-99.054;2022-07-29T08:45:45;23.30;99.90
61386;DHT22;47256;18.904;-99.054;2022-07-29T08:48:20;23.30;99.90
61386;DHT22;47256;18.904;-99.054;2022-07-29T08:50:50;23.20;99.90
61386;DHT22;47256;18.904;-99.054;2022-07-29T08:53:19;23.10;99.90
61386;DHT22;47256;18.904;-99.054;2022-07-29T08:55:49;23.00;99.90
61386;DHT22;47256;18.904;-99.054;2022-07-29T08:58:17;23.00;99.90
61386;DHT22;47256;18.904;-99.054;2022-07-29T09:00:49;23.00;99.90
61386;DHT22;47256;18.904;-99.054;2022-07-29T09:03:23;23.10;99.90
61386;DHT22;47256;18.904;-99.054;2022-07-29T09:05:50;23.10;99.90
61386;DHT22;47256;18.904;-99.054;2022-07-29T09:08:19;23.20;99.90
61386;DHT22;47256;18.904;-99.054;2022-07-29T09:10:47;23.20;99.90
61386;DHT22;47256;18.904;-99.054;2022-07-29T09:13:14;23.20;99.90
61386;DHT22;47256;18.904;-99.054;2022-07-29T09:15:41;23.20;99.90
61386;DHT22;47256;18.904;-99.054;2022-07-29T09:18:08;23.20;99.90
61386;DHT22;47256;18.904;-99.054;2022-07-29T09:20:36;23.20;99.90
61386;DHT22;47256;18.904;-99.054;2022-07-29T09:23:23;23.20;99.90
61386;DHT22;47256;18.904;-99.054;2022-07-29T09:25:49;23.20;99.90
61386;DHT22;47256;18.904;-99.054;2022-07-29T09:28:18;23.20;99.90
61386;DHT22;47256;18.904;-99.054;2022-07-29T09:30:53;23.10;99.90
61386;DHT22;47256;18.904;-99.054;2022-07-29T09:33:22;23.10;99.90
61386;DHT22;47256;18.904;-99.054;2022-07-29T09:36:06;23.10;99.90
61386;DHT22;47256;18.904;-99.054;2022-07-29T09:38:35;23.10;99.90
61386;DHT22;47256;18.904;-99.054;2022-07-29T09:41:06;23.10;99.90
61386;DHT22;47256;18.904;-99.054;2022-07-29T09:43:35;23.10;99.90
61386;DHT22;47256;18.904;-99.054;2022-07-29T09:46:12;23.10;99.90
61386;DHT22;47256;18.904;-99.054;2022-07-29T09:48:40;23.10;99.90
61386;DHT22;47256;18.904;-99.054;2022-07-29T09:51:20;23.10;99.90
61386;DHT22;47256;18.904;-99.054;2022-07-29T09:53:47;23.00;99.90
61386;DHT22;47256;18.904;-99.054;2022-07-29T09:56:14;23.00;99.90
61386;DHT22;47256;18.904;-99.054;2022-07-29T09:58:42;22.90;99.90
61386;DHT22;47256;18.904;-99.054;2022-07-29T10:01:09;22.90;99.90
61386;DHT22;47256;18.904;-99.054;2022-07-29T10:03:52;22.90;99.90
61386;DHT22;47256;18.904;-99.054;2022-07-29T10:06:19;22.90;99.90
61386;DHT22;47256;18.904;-99.054;2022-07-29T10:08:47;22.80;99.90
61386;DHT22;47256;18.904;-99.054;2022-07-29T10:11:18;22.80;99.90
61386;DHT22;47256;18.904;-99.054;2022-07-29T10:13:47;22.80;99.90
61386;DHT22;47256;18.904;-99.054;2022-07-29T10:16:16;22.90;99.90
61386;DHT22;47256;18.904;-99.054;2022-07-29T10:18:44;22.90;99.90
61386;DHT22;47256;18.904;-99.054;2022-07-29T10:21:13;22.90;99.90
61386;DHT22;47256;18.904;-99.054;2022-07-29T10:23:41;22.80;99.90
61386;DHT22;47256;18.904;-99.054;2022-07-29T10:26:10;22.70;99.90
61386;DHT22;47256;18.904;-99.054;2022-07-29T10:28:37;22.70;99.90
61386;DHT22;47256;18.904;-99.054;2022-07-29T10:31:06;22.70;99.90
61386;DHT22;47256;18.904;-99.054;2022-07-29T10:33:51;22.70;99.90
61386;DHT22;47256;18.904;-99.054;2022-07-29T10:36:49;22.70;99.90
61386;DHT22;47256;18.904;-99.054;2022-07-29T10:44:41;22.60;99.90
61386;DHT22;47256;18.904;-99.054;2022-07-29T10:47:19;22.60;99.90
61386;DHT22;47256;18.904;-99.054;2022-07-29T10:50:05;22.50;99.90
61386;DHT22;47256;18.904;-99.054;2022-07-29T10:52:55;22.60;99.90
61386;DHT22;47256;18.904;-99.054;2022-07-29T10:55:39;22.50;99.90
61386;DHT22;47256;18.904;-99.054;2022-07-29T10:58:19;22.50;99.90
61386;DHT22;47256;18.904;-99.054;2022-07-29T11:00:48;22.60;99.90
61386;DHT22;47256;18.904;-99.054;2022-07-29T11:03:46;22.60;99.90
61386;DHT22;47256;18.904;-99.054;2022-07-29T11:06:14;22.70;99.90
61386;DHT22;47256;18.904;-99.054;2022-07-29T11:08:41;22.70;99.90
61386;DHT22;47256;18.904;-99.054;2022-07-29T11:11:32;22.70;99.90
61386;DHT22;47256;18.904;-99.054;2022-07-29T11:13:59;22.70;99.90
61386;DHT22;47256;18.904;-99.054;2022-07-29T11:17:05;22.70;99.90
61386;DHT22;47256;18.904;-99.054;2022-07-29T11:19:34;22.60;99.90
61386;DHT22;47256;18.904;-99.054;2022-07-29T11:22:01;22.60;99.90
61386;DHT22;47256;18.904;-99.054;2022-07-29T11:24:30;22.50;99.90
61386;DHT22;47256;18.904;-99.054;2022-07-29T11:29:56;22.50;99.90
61386;DHT22;47256;18.904;-99.054;2022-07-29T11:32:25;22.40;99.90
61386;DHT22;47256;18.904;-99.054;2022-07-29T11:35:19;22.40;99.90
61386;DHT22;47256;18.904;-99.054;2022-07-29T11:43:58;22.40;99.90
61386;DHT22;47256;18.904;-99.054;2022-07-29T11:46:48;22.40;99.90
61386;DHT22;47256;18.904;-99.054;2022-07-29T11:49:24;22.30;99.90
61386;DHT22;47256;18.904;-99.054;2022-07-29T11:51:53;22.30;99.90
61386;DHT22;47256;18.904;-99.054;2022-07-29T11:54:34;22.30;99.90
61386;DHT22;47256;18.904;-99.054;2022-07-29T11:57:02;22.30;99.90
61386;DHT22;47256;18.904;-99.054;2022-07-29T11:59:29;22.40;99.90
61386;DHT22;47256;18.904;-99.054;2022-07-29T12:01:58;22.40;99.90
61386;DHT22;47256;18.904;-99.054;2022-07-29T12:04:25;22.30;99.90
61386;DHT22;47256;18.904;-99.054;2022-07-29T12:06:57;22.40;99.90
61386;DHT22;47256;18.904;-99.054;2022-07-29T12:09:24;22.30;99.90
61386;DHT22;47256;18.904;-99.054;2022-07-29T12:11:57;22.20;99.90
61386;DHT22;47256;18.904;-99.054;2022-07-29T12:14:27;22.10;99.90
61386;DHT22;47256;18.904;-99.054;2022-07-29T12:16:54;22.00;99.90
61386;DHT22;47256;18.904;-99.054;2022-07-29T12:19:21;22.00;99.90
61386;DHT22;47256;18.904;-99.054;2022-07-29T12:21:52;22.00;99.90
61386;DHT22;47256;18.904;-99.054;2022-07-29T12:24:19;22.00;99.90
61386;DHT22;47256;18.904;-99.054;2022-07-29T12:26:55;21.90;99.90
61386;DHT22;47256;18.904;-99.054;2022-07-29T12:29:23;21.90;99.90
61386;DHT22;47256;18.904;-99.054;2022-07-29T12:31:54;21.80;99.90
61386;DHT22;47256;18.904;-99.054;2022-07-29T12:34:23;21.70;99.90
61386;DHT22;47256;18.904;-99.054;2022-07-29T12:36:53;21.60;99.90
61386;DHT22;47256;18.904;-99.054;2022-07-29T12:39:20;21.70;99.90
61386;DHT22;47256;18.904;-99.054;2022-07-29T12:41:48;21.70;99.90
61386;DHT22;47256;18.904;-99.054;2022-07-29T12:44:14;21.80;99.90
61386;DHT22;47256;18.904;-99.054;2022-07-29T12:46:42;21.90;99.90
61386;DHT22;47256;18.904;-99.054;2022-07-29T12:49:09;22.00;99.90
61386;DHT22;47256;18.904;-99.054;2022-07-29T12:51:40;22.10;99.90
61386;DHT22;47256;18.904;-99.054;2022-07-29T12:54:12;22.10;99.90
61386;DHT22;47256;18.904;-99.054;2022-07-29T12:56:44;22.00;99.90
61386;DHT22;47256;18.904;-99.054;2022-07-29T12:59:22;21.90;99.90
61386;DHT22;47256;18.904;-99.054;2022-07-29T13:01:51;21.80;99.90
61386;DHT22;47256;18.904;-99.054;2022-07-29T13:04:32;21.80;99.90
61386;DHT22;47256;18.904;-99.054;2022-07-29T13:07:05;21.80;99.90
61386;DHT22;47256;18.904;-99.054;2022-07-29T13:09:44;21.80;99.90
61386;DHT22;47256;18.904;-99.054;2022-07-29T13:12:15;21.90;99.90
61386;DHT22;47256;18.904;-99.054;2022-07-29T13:14:47;21.90;99.90
61386;DHT22;47256;18.904;-99.054;2022-07-29T13:17:16;22.00;99.90
61386;DHT22;47256;18.904;-99.054;2022-07-29T13:19:49;22.00;99.90
61386;DHT22;47256;18.904;-99.054;2022-07-29T13:22:24;22.10;99.90
61386;DHT22;47256;18.904;-99.054;2022-07-29T13:24:58;22.10;99.90
61386;DHT22;47256;18.904;-99.054;2022-07-29T13:27:29;22.20;99.90
61386;DHT22;47256;18.904;-99.054;2022-07-29T13:29:57;22.20;99.90
61386;DHT22;47256;18.904;-99.054;2022-07-29T13:32:27;22.20;99.90
61386;DHT22;47256;18.904;-99.054;2022-07-29T13:34:56;22.20;99.90
61386;DHT22;47256;18.904;-99.054;2022-07-29T13:37:24;22.20;99.90
61386;DHT22;47256;18.904;-99.054;2022-07-29T13:39:52;22.20;99.90
61386;DHT22;47256;18.904;-99.054;2022-07-29T13:42:21;22.20;99.90
61386;DHT22;47256;18.904;-99.054;2022-07-29T13:44:48;22.20;99.90
61386;DHT22;47256;18.904;-99.054;2022-07-29T13:47:17;22.30;99.90
61386;DHT22;47256;18.904;-99.054;2022-07-29T13:49:44;22.30;99.90
61386;DHT22;47256;18.904;-99.054;2022-07-29T13:52:11;22.20;99.90
61386;DHT22;47256;18.904;-99.054;2022-07-29T13:54:39;22.20;99.90
61386;DHT22;47256;18.904;-99.054;2022-07-29T13:57:07;22.20;99.90
61386;DHT22;47256;18.904;-99.054;2022-07-29T13:59:34;22.20;99.90
61386;DHT22;47256;18.904;-99.054;2022-07-29T14:02:01;22.30;99.90
61386;DHT22;47256;18.904;-99.054;2022-07-29T14:04:28;22.30;99.90
61386;DHT22;47256;18.904;-99.054;2022-07-29T14:06:55;22.30;99.90
61386;DHT22;47256;18.904;-99.054;2022-07-29T14:09:22;22.30;99.90
61386;DHT22;47256;18.904;-99.054;2022-07-29T14:11:49;22.40;99.90
61386;DHT22;47256;18.904;-99.054;2022-07-29T14:14:18;22.40;99.90
61386;DHT22;47256;18.904;-99.054;2022-07-29T14:16:45;22.30;99.90
61386;DHT22;47256;18.904;-99.054;2022-07-29T14:19:12;22.40;99.90
61386;DHT22;47256;18.904;-99.054;2022-07-29T14:21:39;22.40;99.90
61386;DHT22;47256;18.904;-99.054;2022-07-29T14:24:06;22.40;99.90
61386;DHT22;47256;18.904;-99.054;2022-07-29T14:26:33;22.40;99.90
61386;DHT22;47256;18.904;-99.054;2022-07-29T14:29:00;22.40;99.90
61386;DHT22;47256;18.904;-99.054;2022-07-29T14:31:27;22.40;99.90
61386;DHT22;47256;18.904;-99.054;2022-07-29T14:33:54;22.40;99.90
61386;DHT22;47256;18.904;-99.054;2022-07-29T14:36:21;22.40;99.90
61386;DHT22;47256;18.904;-99.054;2022-07-29T14:38:48;22.50;99.90
61386;DHT22;47256;18.904;-99.054;2022-07-29T14:41:16;22.60;99.90
61386;DHT22;47256;18.904;-99.054;2022-07-29T14:43:43;22.60;99.90
61386;DHT22;47256;18.904;-99.054;2022-07-29T14:46:09;22.60;99.90
61386;DHT22;47256;18.904;-99.054;2022-07-29T14:48:36;22.60;99.90
61386;DHT22;47256;18.904;-99.054;2022-07-29T14:51:03;22.70;99.90
61386;DHT22;47256;18.904;-99.054;2022-07-29T14:53:31;22.70;99.90
61386;DHT22;47256;18.904;-99.054;2022-07-29T14:55:58;22.70;99.90
61386;DHT22;47256;18.904;-99.054;2022-07-29T14:58:25;22.70;99.90
61386;DHT22;47256;18.904;-99.054;2022-07-29T15:00:52;22.60;99.90
61386;DHT22;47256;18.904;-99.054;2022-07-29T15:03:21;22.60;99.90
61386;DHT22;47256;18.904;-99.054;2022-07-29T15:05:48;22.60;99.90
61386;DHT22;47256;18.904;-99.054;2022-07-29T15:08:15;22.70;99.90
61386;DHT22;47256;18.904;-99.054;2022-07-29T15:10:42;22.70;99.90
61386;DHT22;47256;18.904;-99.054;2022-07-29T15:13:09;22.80;99.90
61386;DHT22;47256;18.904;-99.054;2022-07-29T15:15:37;22.90;99.90
61386;DHT22;47256;18.904;-99.054;2022-07-29T15:18:04;22.90;99.90
61386;DHT22;47256;18.904;-99.054;2022-07-29T15:20:31;22.90;99.90
61386;DHT22;47256;18.904;-99.054;2022-07-29T15:22:58;23.00;99.90
61386;DHT22;47256;18.904;-99.054;2022-07-29T15:25:26;23.10;99.90
61386;DHT22;47256;18.904;-99.054;2022-07-29T15:27:53;23.10;99.90
61386;DHT22;47256;18.904;-99.054;2022-07-29T15:30:23;23.20;99.90
61386;DHT22;47256;18.904;-99.054;2022-07-29T15:32:50;23.30;99.90
61386;DHT22;47256;18.904;-99.054;2022-07-29T15:35:17;23.30;99.90
61386;DHT22;47256;18.904;-99.054;2022-07-29T15:37:44;23.30;99.90
61386;DHT22;47256;18.904;-99.054;2022-07-29T15:40:11;23.30;99.90
61386;DHT22;47256;18.904;-99.054;2022-07-29T15:42:39;23.20;99.90
61386;DHT22;47256;18.904;-99.054;2022-07-29T15:45:06;23.20;99.90
61386;DHT22;47256;18.904;-99.054;2022-07-29T15:47:35;23.20;99.90
61386;DHT22;47256;18.904;-99.054;2022-07-29T15:50:03;23.20;99.90